Decoded Metar for EPSY (SZYMANY in POLAND) (IATA:N/A) | Meteo·Mobile Aviation Weather
aviador You're here:

EPSY Decoded Metar

SZYMANY in POLAND
Report Time2018-09-18 13:30:00
UTC Time2018-09-18 13:45:17
Flight Rules vfr VFR
Wind200° at 09 kt
W.Decomp.*RWY 20: 9.0 kt HW 0.3 kt LCW
W.Rank200° ranks 5
Current wind is above 200° avg. (7.3)
Visibility9999 m
Phenomena:N/A
Clouds:N/A
Expected CloudBase > 4,800 ft AGL from Temp-Dew spread
CeilingNone
Temp25°C (ISA +11)
Dew Point13°C (47% RH)
AAT22.7°C
QNH1018 hPa
Density Alt1,762 ft
Elevation463 ft
Report Wrong Elevation
Raw Report
METAR EPSY 181330Z 20009KT 140V230 CAVOK 25/13 Q1018=

Extra information for EPSY:More info

Airport Information Weather charts Add Link Nearby Venues Social comments